Time;durP1;ratioP1;P1;durP2;ratioP2;P2;SDS_P1;SDS_P2;PMS_P1;PMS_P2;Temp;Humidity;BMP_temperature;BMP_pressure;BME280_temperature;BME280_humidity;BME280_pressure;Samples;Min_cycle;Max_cycle;Signal;HPM_P1;HPM_P2
2023/09/16 00:00:34;;;;;;;5.90;4.17;;;20.90;1.00;;;;;;4988474;28;20210;-75
2023/09/16 00:03:00;;;;;;;5.00;4.17;;;20.90;1.00;;;;;;4988450;28;20182;-75
2023/09/16 00:05:26;;;;;;;7.13;4.63;;;20.90;1.00;;;;;;4984975;28;20219;-75
2023/09/16 00:07:52;;;;;;;9.10;4.73;;;20.90;1.00;;;;;;4988322;28;20437;-75
2023/09/16 00:10:18;;;;;;;7.23;4.00;;;20.80;1.00;;;;;;4989101;28;20187;-76
2023/09/16 00:12:43;;;;;;;9.00;4.20;;;20.80;1.00;;;;;;4992412;28;20205;-76
2023/09/16 00:15:09;;;;;;;12.63;4.63;;;20.80;1.00;;;;;;4988803;28;20217;-75
2023/09/16 00:17:35;;;;;;;5.97;4.70;;;20.80;1.00;;;;;;4988425;28;20194;-75
2023/09/16 00:20:04;;;;;;;5.03;4.30;;;20.80;1.00;;;;;;4989306;28;20210;-75
2023/09/16 00:22:30;;;;;;;5.97;4.53;;;20.80;1.00;;;;;;4988799;28;20680;-76
2023/09/16 00:24:55;;;;;;;5.80;4.13;;;20.80;1.00;;;;;;4988403;28;20545;-75
2023/09/16 00:27:21;;;;;;;5.63;4.27;;;20.80;1.00;;;;;;4988457;28;20530;-76
2023/09/16 00:29:46;;;;;;;10.93;4.50;;;20.80;1.00;;;;;;4988297;28;20204;-77
2023/09/16 00:32:12;;;;;;;9.40;4.93;;;20.80;1.00;;;;;;4991943;28;20280;-75
2023/09/16 00:34:38;;;;;;;6.00;4.20;;;20.80;1.00;;;;;;4991232;28;20328;-77
2023/09/16 00:37:03;;;;;;;7.80;4.23;;;20.80;1.00;;;;;;4991963;28;20210;-74
2023/09/16 00:39:29;;;;;;;7.90;4.60;;;20.80;1.00;;;;;;4992357;28;20210;-77
2023/09/16 00:41:54;;;;;;;5.47;4.40;;;20.80;1.00;;;;;;4991920;28;20195;-76
2023/09/16 00:44:20;;;;;;;6.43;4.93;;;20.80;1.00;;;;;;4991818;28;20175;-76
2023/09/16 00:46:45;;;;;;;6.50;4.63;;;20.70;1.00;;;;;;4991099;28;20194;-77
2023/09/16 00:49:11;;;;;;;10.03;5.30;;;20.70;1.00;;;;;;4991866;28;20183;-75
2023/09/16 00:51:40;;;;;;;9.33;5.33;;;20.80;1.00;;;;;;4991446;28;20217;-73
2023/09/16 00:54:06;;;;;;;6.33;4.43;;;20.70;1.00;;;;;;4988311;28;20187;-75
2023/09/16 00:56:32;;;;;;;7.87;5.47;;;20.70;1.00;;;;;;4987597;28;20536;-78
2023/09/16 00:58:59;;;;;;;7.70;4.60;;;20.70;1.00;;;;;;4987815;28;20719;-78
2023/09/16 01:01:25;;;;;;;9.93;5.10;;;20.70;1.00;;;;;;4989102;28;20484;-76
2023/09/16 01:03:52;;;;;;;8.67;5.20;;;20.70;1.00;;;;;;4988447;28;20437;-75
2023/09/16 01:06:18;;;;;;;6.87;4.87;;;22.10;1.00;;;;;;4986183;28;20820;-74
2023/09/16 01:08:44;;;;;;;5.70;4.70;;;20.60;1.00;;;;;;4990976;28;20464;-76
2023/09/16 01:11:10;;;;;;;5.67;4.37;;;20.60;1.00;;;;;;4990826;28;20429;-76
2023/09/16 01:13:37;;;;;;;6.47;5.07;;;20.60;1.00;;;;;;4994831;28;20189;-75
2023/09/16 01:16:05;;;;;;;7.00;5.10;;;20.60;1.00;;;;;;4982942;28;20446;-75
2023/09/16 01:18:42;;;;;;;5.90;4.93;;;20.60;1.00;;;;;;4973637;28;20948;-76
2023/09/16 01:21:08;;;;;;;7.43;4.50;;;20.60;1.00;;;;;;4990990;28;20429;-75
2023/09/16 01:23:34;;;;;;;6.70;4.47;;;20.60;1.00;;;;;;4991000;28;21067;-78
2023/09/16 01:25:59;;;;;;;6.30;4.80;;;20.60;1.00;;;;;;4992923;28;20433;-75
2023/09/16 01:28:25;;;;;;;10.70;4.87;;;20.60;1.00;;;;;;4991158;28;20206;-76
2023/09/16 01:30:55;;;;;;;11.70;4.87;;;20.60;1.00;;;;;;4990492;28;20324;-77
2023/09/16 01:33:44;;;;;;;7.50;5.00;;;20.60;1.00;;;;;;4991166;28;20847;-75
2023/09/16 01:36:18;;;;;;;7.67;5.27;;;20.50;1.00;;;;;;4990067;28;20442;-78
2023/09/16 01:38:46;;;;;;;6.23;4.90;;;20.50;1.00;;;;;;4990607;28;20437;-77
2023/09/16 01:41:14;;;;;;;7.30;4.80;;;20.50;1.00;;;;;;4990156;28;21090;-76
2023/09/16 01:43:39;;;;;;;7.10;5.10;;;20.40;1.00;;;;;;4990738;28;20516;-76
2023/09/16 01:46:05;;;;;;;9.30;4.63;;;20.40;1.00;;;;;;4990055;28;20538;-76
2023/09/16 01:48:30;;;;;;;7.80;4.80;;;20.40;1.00;;;;;;4990845;28;20210;-75
2023/09/16 01:50:56;;;;;;;5.93;4.87;;;20.40;1.00;;;;;;4989826;28;20648;-77
2023/09/16 01:53:22;;;;;;;8.53;4.90;;;20.40;1.00;;;;;;4990603;28;20219;-76
2023/09/16 01:55:47;;;;;;;6.13;4.70;;;20.40;1.00;;;;;;4989643;28;20681;-75
2023/09/16 01:58:13;;;;;;;6.90;5.37;;;20.40;1.00;;;;;;4990478;28;20526;-76
2023/09/16 02:00:38;;;;;;;5.50;4.70;;;20.40;1.00;;;;;;4989897;28;20289;-76
2023/09/16 02:03:04;;;;;;;6.57;4.77;;;20.40;1.00;;;;;;4996107;28;20273;-76
2023/09/16 02:05:29;;;;;;;6.40;5.20;;;20.30;1.00;;;;;;4984791;28;20689;-77
2023/09/16 02:07:57;;;;;;;7.47;4.90;;;20.30;1.00;;;;;;4989963;28;20182;-76
2023/09/16 02:10:23;;;;;;;7.40;4.90;;;20.30;1.00;;;;;;4989898;28;20183;-76
2023/09/16 02:12:48;;;;;;;6.50;4.80;;;20.30;1.00;;;;;;4989554;28;20492;-76
2023/09/16 02:15:14;;;;;;;6.73;4.60;;;20.30;1.00;;;;;;4989983;28;20209;-77
2023/09/16 02:17:40;;;;;;;11.50;5.60;;;20.30;1.00;;;;;;4989994;28;20538;-76
2023/09/16 02:20:09;;;;;;;7.17;5.20;;;20.20;1.00;;;;;;4989414;28;20597;-76
2023/09/16 02:22:35;;;;;;;6.30;5.10;;;20.30;1.00;;;;;;4987374;28;20178;-76
2023/09/16 02:25:00;;;;;;;7.93;5.20;;;20.30;1.00;;;;;;4989522;28;20816;-75
2023/09/16 02:27:26;;;;;;;6.07;5.20;;;20.30;1.00;;;;;;4989245;28;20191;-75
2023/09/16 02:29:51;;;;;;;9.37;5.50;;;20.20;1.00;;;;;;4989288;28;20197;-77
2023/09/16 02:32:17;;;;;;;7.00;5.30;;;20.20;1.00;;;;;;4989722;28;20236;-77
2023/09/16 02:34:43;;;;;;;7.03;4.80;;;20.20;1.00;;;;;;4989385;28;20203;-75
2023/09/16 02:37:08;;;;;;;7.00;5.43;;;20.20;1.00;;;;;;4989445;28;20187;-77
2023/09/16 02:39:33;;;;;;;7.13;5.20;;;20.10;1.00;;;;;;4989636;28;20210;-77
2023/09/16 02:41:59;;;;;;;7.20;5.90;;;20.10;1.00;;;;;;4971780;28;20183;-76
2023/09/16 02:44:24;;;;;;;8.77;5.73;;;20.10;1.00;;;;;;4989282;28;20182;-76
2023/09/16 02:46:50;;;;;;;8.00;5.67;;;20.10;1.00;;;;;;4989479;28;20187;-75
2023/09/16 02:49:15;;;;;;;6.90;5.20;;;20.10;1.00;;;;;;4989794;28;20197;-76
2023/09/16 02:51:41;;;;;;;7.40;5.10;;;20.00;1.00;;;;;;4989796;28;20191;-76
2023/09/16 02:54:06;;;;;;;7.87;5.17;;;20.10;1.00;;;;;;4988857;28;20190;-75
2023/09/16 02:56:32;;;;;;;7.40;5.40;;;20.00;1.00;;;;;;4989590;28;20609;-76
2023/09/16 02:58:58;;;;;;;7.10;5.67;;;20.10;1.00;;;;;;4989581;28;20576;-75
2023/09/16 03:01:24;;;;;;;8.37;4.60;;;20.00;1.00;;;;;;4989355;28;20422;-75
2023/09/16 03:03:49;;;;;;;10.07;5.50;;;20.00;1.00;;;;;;4982325;28;20188;-73
2023/09/16 03:06:15;;;;;;;6.80;4.77;;;20.00;1.00;;;;;;4989018;28;20622;-75
2023/09/16 03:08:40;;;;;;;7.73;5.43;;;20.00;1.00;;;;;;4989861;28;20294;-75
2023/09/16 03:11:06;;;;;;;6.43;5.27;;;20.00;1.00;;;;;;4986928;28;20187;-76
2023/09/16 03:13:32;;;;;;;7.63;5.30;;;19.90;1.00;;;;;;4986499;28;20194;-77
2023/09/16 03:16:20;;;;;;;7.57;5.20;;;19.90;1.00;;;;;;4986375;28;20214;-75
2023/09/16 03:18:47;;;;;;;8.00;5.93;;;19.90;1.00;;;;;;4988475;28;20183;-75
2023/09/16 03:21:14;;;;;;;6.93;5.43;;;19.90;1.00;;;;;;4988908;28;20515;-75
2023/09/16 03:23:40;;;;;;;9.57;6.53;;;19.80;1.00;;;;;;4989988;28;20498;-74
2023/09/16 03:26:07;;;;;;;7.80;5.73;;;19.80;1.00;;;;;;4989110;28;20446;-75
2023/09/16 03:28:33;;;;;;;9.50;6.47;;;19.70;1.00;;;;;;4989690;28;20437;-74
2023/09/16 03:30:58;;;;;;;8.07;6.27;;;19.70;1.00;;;;;;4989034;28;20577;-74
2023/09/16 03:33:24;;;;;;;8.10;6.07;;;19.80;1.00;;;;;;4989741;28;20528;-75
2023/09/16 03:35:49;;;;;;;6.90;5.83;;;19.80;1.00;;;;;;4995615;28;20815;-76
2023/09/16 03:38:16;;;;;;;7.13;5.50;;;19.80;1.00;;;;;;4989206;28;20187;-75
2023/09/16 03:40:42;;;;;;;7.60;5.73;;;19.70;1.00;;;;;;4988917;28;20227;-74
2023/09/16 03:43:07;;;;;;;7.37;5.93;;;19.80;1.00;;;;;;4988890;28;20419;-76
2023/09/16 03:45:33;;;;;;;7.50;5.70;;;19.70;1.00;;;;;;4988806;28;20294;-74
2023/09/16 03:47:59;;;;;;;7.30;5.90;;;19.80;1.00;;;;;;4988789;28;20258;-74
2023/09/16 03:50:25;;;;;;;7.90;6.00;;;19.70;1.00;;;;;;4989189;28;20225;-74
2023/09/16 03:52:51;;;;;;;8.00;5.67;;;19.70;1.00;;;;;;4989138;28;20179;-75
2023/09/16 03:55:16;;;;;;;13.37;6.20;;;19.60;1.00;;;;;;4988504;28;20446;-76
2023/09/16 03:57:41;;;;;;;7.80;6.13;;;19.60;1.00;;;;;;4989009;28;20191;-74
2023/09/16 04:00:08;;;;;;;7.80;6.33;;;19.60;1.00;;;;;;4988475;28;20704;-75
2023/09/16 04:02:33;;;;;;;7.63;5.80;;;19.60;1.00;;;;;;4989138;28;20195;-74
2023/09/16 04:04:59;;;;;;;8.40;6.10;;;19.50;1.00;;;;;;4982179;28;20450;-74
2023/09/16 04:07:24;;;;;;;8.73;6.30;;;19.50;1.00;;;;;;4992948;28;20218;-76
2023/09/16 04:09:50;;;;;;;9.83;6.40;;;19.50;1.00;;;;;;4992659;28;20585;-75
2023/09/16 04:12:15;;;;;;;6.50;5.67;;;19.50;1.00;;;;;;4995871;28;20676;-76
2023/09/16 04:14:41;;;;;;;7.57;6.30;;;19.40;1.00;;;;;;4992267;28;20289;-76
2023/09/16 04:17:06;;;;;;;8.20;6.20;;;19.60;1.00;;;;;;4992409;28;20905;-74
2023/09/16 04:19:32;;;;;;;7.80;6.07;;;19.40;1.00;;;;;;4990249;28;20218;-75
2023/09/16 04:21:58;;;;;;;7.93;5.60;;;19.40;1.00;;;;;;4990992;28;20183;-76
2023/09/16 04:24:23;;;;;;;7.70;6.77;;;19.40;1.00;;;;;;4990208;28;20604;-75
2023/09/16 04:26:49;;;;;;;8.10;5.80;;;19.30;1.00;;;;;;4990866;28;20179;-74
2023/09/16 04:29:14;;;;;;;7.87;6.60;;;19.30;1.00;;;;;;4990545;28;20249;-75
2023/09/16 04:31:40;;;;;;;7.27;6.13;;;19.30;1.00;;;;;;4998103;28;20189;-75
2023/09/16 04:34:05;;;;;;;7.33;5.93;;;19.30;1.00;;;;;;4997614;28;20261;-76
2023/09/16 04:36:31;;;;;;;7.67;5.90;;;19.30;1.00;;;;;;4991709;28;20218;-75
2023/09/16 04:38:57;;;;;;;9.20;6.53;;;19.30;1.00;;;;;;4958699;28;20198;-76
2023/09/16 04:41:23;;;;;;;7.73;6.30;;;19.30;1.00;;;;;;4966991;28;20189;-76
2023/09/16 04:43:49;;;;;;;9.53;6.47;;;19.30;1.00;;;;;;4974429;28;20433;-76
2023/09/16 04:46:18;;;;;;;9.37;7.10;;;19.20;1.00;;;;;;4977132;28;20446;-75
2023/09/16 04:48:44;;;;;;;8.80;6.90;;;19.20;1.00;;;;;;4991950;28;20179;-75
2023/09/16 04:51:10;;;;;;;8.57;6.40;;;19.20;1.00;;;;;;4991400;28;20781;-74
2023/09/16 04:53:35;;;;;;;7.53;6.30;;;19.10;1.00;;;;;;4991731;28;20421;-76
2023/09/16 04:56:02;;;;;;;8.90;6.83;;;19.10;1.00;;;;;;4990592;28;20206;-76
2023/09/16 04:58:28;;;;;;;11.97;7.00;;;19.10;1.00;;;;;;4973490;28;20187;-74
2023/09/16 05:00:53;;;;;;;8.07;6.70;;;19.00;1.00;;;;;;4991403;28;20524;-75
2023/09/16 05:03:19;;;;;;;8.23;6.10;;;19.10;1.00;;;;;;4990532;28;20643;-77
2023/09/16 05:05:47;;;;;;;9.10;6.67;;;19.10;1.00;;;;;;4991182;28;20199;-76
2023/09/16 05:08:13;;;;;;;9.13;6.90;;;19.10;1.00;;;;;;4991003;28;20225;-77
2023/09/16 05:10:38;;;;;;;9.90;6.53;;;19.10;1.00;;;;;;4990941;28;20682;-75
2023/09/16 05:13:04;;;;;;;7.47;6.60;;;19.10;1.00;;;;;;4991070;28;20210;-77
2023/09/16 05:15:29;;;;;;;8.43;7.03;;;19.10;1.00;;;;;;4994095;28;20260;-77
2023/09/16 05:17:55;;;;;;;9.90;6.50;;;19.10;1.00;;;;;;4990152;28;20803;-76
2023/09/16 05:20:20;;;;;;;9.50;6.50;;;19.20;1.00;;;;;;4990193;28;20221;-75
2023/09/16 05:22:47;;;;;;;9.70;6.30;;;19.20;1.00;;;;;;4987851;28;20199;-75
2023/09/16 05:25:13;;;;;;;9.83;6.77;;;19.20;1.00;;;;;;4988198;28;20198;-75
2023/09/16 05:27:38;;;;;;;8.10;6.50;;;19.20;1.00;;;;;;4985526;28;20449;-75
2023/09/16 05:30:04;;;;;;;7.87;6.63;;;19.20;1.00;;;;;;4990541;28;20202;-74
2023/09/16 05:32:30;;;;;;;8.50;6.37;;;19.30;1.00;;;;;;4987281;28;20191;-74
2023/09/16 05:34:56;;;;;;;8.43;6.00;;;19.30;1.00;;;;;;4986310;28;20462;-74
2023/09/16 05:37:22;;;;;;;7.60;6.50;;;19.30;1.00;;;;;;4986899;28;21077;-74
2023/09/16 05:39:47;;;;;;;13.23;6.73;;;19.30;1.00;;;;;;4987427;28;20322;-74
2023/09/16 05:42:13;;;;;;;7.50;6.00;;;19.30;1.00;;;;;;4988358;28;20199;-76
2023/09/16 05:44:39;;;;;;;10.20;7.00;;;19.40;1.00;;;;;;4987800;28;20581;-74
2023/09/16 05:47:05;;;;;;;8.37;7.07;;;19.40;1.00;;;;;;4987601;28;20249;-76
2023/09/16 05:49:30;;;;;;;9.43;7.60;;;19.40;1.00;;;;;;4989466;28;20549;-74
2023/09/16 05:51:56;;;;;;;8.03;7.07;;;21.90;1.00;;;;;;4988566;28;20198;-73
2023/09/16 05:54:21;;;;;;;8.63;6.77;;;19.60;1.00;;;;;;4985346;28;20199;-77
2023/09/16 05:56:47;;;;;;;8.17;6.70;;;19.60;1.00;;;;;;4987624;28;20198;-74
2023/09/16 05:59:14;;;;;;;9.60;6.50;;;19.60;1.00;;;;;;4987017;28;20203;-74
2023/09/16 06:01:39;;;;;;;9.00;6.47;;;19.70;1.00;;;;;;4988575;28;20735;-74
2023/09/16 06:04:05;;;;;;;8.63;6.60;;;19.70;1.00;;;;;;4987393;28;20441;-75
2023/09/16 06:06:31;;;;;;;9.63;7.10;;;19.80;1.00;;;;;;4981515;28;20278;-76
2023/09/16 06:08:56;;;;;;;8.60;7.20;;;19.90;1.00;;;;;;4959157;28;20267;-74
2023/09/16 06:11:26;;;;;;;9.33;6.50;;;19.90;1.00;;;;;;4984234;28;20539;-74
2023/09/16 06:13:52;;;;;;;9.43;6.50;;;20.20;1.00;;;;;;4986462;28;20966;-73
2023/09/16 06:16:18;;;;;;;9.17;6.73;;;20.70;1.00;;;;;;4984711;28;20536;-70
2023/09/16 06:18:43;;;;;;;6.93;6.23;;;21.20;1.00;;;;;;4986994;28;21147;-71
2023/09/16 06:21:09;;;;;;;8.50;5.97;;;22.00;1.00;;;;;;4984044;28;20212;-70
2023/09/16 06:23:34;;;;;;;6.70;5.53;;;22.50;1.00;;;;;;4985433;28;20193;-74
2023/09/16 06:26:00;;;;;;;8.63;6.40;;;23.00;1.00;;;;;;4985181;28;20202;-75
2023/09/16 06:28:26;;;;;;;8.60;6.70;;;23.40;1.00;;;;;;4982982;28;20206;-74
2023/09/16 06:30:51;;;;;;;7.90;6.50;;;23.90;1.00;;;;;;4987574;28;20191;-74
2023/09/16 06:33:17;;;;;;;8.73;6.53;;;24.20;1.00;;;;;;4985695;28;20589;-75
2023/09/16 06:35:42;;;;;;;9.60;7.63;;;24.40;1.00;;;;;;4983913;28;20221;-74
2023/09/16 06:38:08;;;;;;;9.73;7.50;;;24.50;1.00;;;;;;4987476;28;20183;-74
2023/09/16 06:40:33;;;;;;;10.73;8.27;;;24.10;1.00;;;;;;4985244;28;20203;-77
2023/09/16 06:42:59;;;;;;;11.83;8.23;;;23.70;1.00;;;;;;4987391;28;20189;-76
2023/09/16 06:45:24;;;;;;;9.33;8.20;;;23.40;1.00;;;;;;4987979;28;20792;-73
2023/09/16 06:47:50;;;;;;;10.30;8.53;;;22.90;1.00;;;;;;4984906;28;20214;-73
2023/09/16 06:50:15;;;;;;;12.87;7.97;;;23.10;1.00;;;;;;4985073;28;20661;-73
2023/09/16 06:52:41;;;;;;;12.97;8.53;;;23.60;1.00;;;;;;4982904;28;20186;-74
2023/09/16 06:55:07;;;;;;;12.07;8.80;;;23.70;1.00;;;;;;4984558;28;20225;-73
2023/09/16 06:57:32;;;;;;;13.17;8.50;;;23.60;1.00;;;;;;4987709;28;20261;-73
2023/09/16 06:59:58;;;;;;;12.40;8.30;;;23.30;1.00;;;;;;4987025;28;20747;-73
2023/09/16 07:02:23;;;;;;;11.23;8.30;;;23.10;1.00;;;;;;4986173;28;20187;-73
2023/09/16 07:04:50;;;;;;;11.23;8.37;;;22.80;1.00;;;;;;4982761;28;20258;-73
2023/09/16 07:07:16;;;;;;;11.10;8.30;;;22.70;1.00;;;;;;4968547;28;20198;-73
2023/09/16 07:09:41;;;;;;;9.20;7.93;;;23.00;1.00;;;;;;4983990;28;20434;-73
2023/09/16 07:12:07;;;;;;;9.30;7.47;;;23.70;1.00;;;;;;4986522;28;20669;-73
2023/09/16 07:14:39;;;;;;;9.40;6.97;;;25.40;1.00;;;;;;4980959;28;20273;-72
2023/09/16 07:17:04;;;;;;;8.83;7.00;;;25.50;1.00;;;;;;4986399;28;20560;-73
2023/09/16 07:19:30;;;;;;;7.67;6.83;;;26.30;1.00;;;;;;4984921;28;20329;-73
2023/09/16 07:21:56;;;;;;;8.65;7.13;;;26.70;1.00;;;;;;4982816;28;20177;-71
2023/09/16 07:24:21;;;;;;;9.95;7.57;;;28.20;1.00;;;;;;4983823;28;20186;-74
2023/09/16 07:26:49;;;;;;;9.25;7.05;;;28.10;1.00;;;;;;4984296;28;20182;-74
2023/09/16 07:29:14;;;;;;;8.75;7.82;;;28.90;1.00;;;;;;4984018;28;20194;-74
2023/09/16 07:31:40;;;;;;;8.18;7.20;;;29.30;1.00;;;;;;4986423;28;20483;-74
2023/09/16 07:34:05;;;;;;;11.20;6.80;;;29.70;1.00;;;;;;4986490;28;20190;-76
2023/09/16 07:36:31;;;;;;;8.15;7.35;;;29.70;1.00;;;;;;4986737;28;20306;-73
2023/09/16 07:38:57;;;;;;;8.98;7.40;;;30.00;1.00;;;;;;4986102;28;20802;-74
2023/09/16 07:41:23;;;;;;;7.70;6.90;;;29.70;1.00;;;;;;4987707;28;20586;-76
2023/09/16 07:43:48;;;;;;;8.50;7.32;;;29.70;1.00;;;;;;4987496;28;20715;-74
2023/09/16 07:46:14;;;;;;;10.95;6.78;;;29.90;1.00;;;;;;4984811;28;20221;-75
2023/09/16 07:48:39;;;;;;;8.48;6.97;;;30.10;1.00;;;;;;4990109;28;20178;-76
2023/09/16 07:51:05;;;;;;;8.25;6.97;;;30.50;1.00;;;;;;4988804;28;20321;-74
2023/09/16 07:53:31;;;;;;;8.60;7.68;;;30.90;1.00;;;;;;4988123;28;20530;-74
2023/09/16 07:55:56;;;;;;;8.27;7.47;;;31.10;1.00;;;;;;4989675;28;20725;-77
2023/09/16 07:58:22;;;;;;;14.32;6.88;;;31.20;1.00;;;;;;4990762;28;20193;-74
2023/09/16 08:00:48;;;;;;;7.82;7.03;;;31.40;1.00;;;;;;4987895;28;20202;-74
2023/09/16 08:03:14;;;;;;;7.78;6.97;;;31.10;1.00;;;;;;4990353;28;20189;-74
2023/09/16 08:05:39;;;;;;;14.98;6.70;;;31.10;1.00;;;;;;4989466;28;20207;-74
2023/09/16 08:08:05;;;;;;;7.18;6.47;;;31.30;1.00;;;;;;4989842;28;20270;-75
2023/09/16 08:10:30;;;;;;;8.18;7.38;;;31.80;1.00;;;;;;4991013;28;20336;-74
2023/09/16 08:12:56;;;;;;;7.68;6.90;;;32.30;1.00;;;;;;4992608;28;20190;-74
2023/09/16 08:15:21;;;;;;;8.23;7.43;;;32.30;1.00;;;;;;4990091;28;20202;-75
2023/09/16 08:17:47;;;;;;;7.60;6.80;;;32.40;1.00;;;;;;4991699;28;20209;-75
2023/09/16 08:20:13;;;;;;;9.13;7.10;;;32.40;1.00;;;;;;4990500;28;20337;-75
2023/09/16 08:22:38;;;;;;;7.63;6.82;;;32.60;1.00;;;;;;4990182;28;20183;-74
2023/09/16 08:25:05;;;;;;;8.27;7.45;;;33.00;1.00;;;;;;4989680;28;20759;-77
2023/09/16 08:27:30;;;;;;;8.18;7.38;;;33.00;1.00;;;;;;4984771;28;20600;-74
2023/09/16 08:29:56;;;;;;;8.15;7.35;;;33.40;1.00;;;;;;4989912;28;20277;-76
2023/09/16 08:32:28;;;;;;;8.05;6.65;;;33.60;1.00;;;;;;4991275;28;20558;-73
2023/09/16 08:34:54;;;;;;;8.93;6.90;;;33.50;1.00;;;;;;4989960;28;20206;-74
2023/09/16 08:37:20;;;;;;;7.57;6.88;;;34.10;1.00;;;;;;4992743;28;20608;-75
2023/09/16 08:39:45;;;;;;;11.75;6.80;;;34.90;1.00;;;;;;4990569;28;20210;-75
2023/09/16 08:42:33;;;;;;;6.80;6.10;;;35.70;1.00;;;;;;4991657;28;20256;-75
2023/09/16 08:45:01;;;;;;;8.05;6.30;;;35.60;1.00;;;;;;4988234;28;20965;-75
2023/09/16 08:47:34;;;;;;;8.65;6.38;;;36.30;1.00;;;;;;4988516;28;20185;-75
2023/09/16 08:50:07;;;;;;;8.50;6.20;;;36.80;1.00;;;;;;4990859;28;20660;-75
2023/09/16 08:52:46;;;;;;;7.18;6.38;;;36.80;1.00;;;;;;4988989;28;20194;-75
2023/09/16 08:55:13;;;;;;;7.88;6.28;;;37.10;1.00;;;;;;4990760;28;20202;-75
2023/09/16 08:57:50;;;;;;;11.23;6.32;;;37.20;1.00;;;;;;4985170;28;20194;-76
2023/09/16 09:00:16;;;;;;;11.13;6.72;;;37.50;1.00;;;;;;4989646;28;20198;-74
2023/09/16 09:02:43;;;;;;;7.40;5.97;;;37.30;1.00;;;;;;4989469;28;20186;-75
2023/09/16 09:05:11;;;;;;;7.00;6.30;;;37.50;1.00;;;;;;4988657;28;20349;-75
2023/09/16 09:07:39;;;;;;;8.38;5.55;;;37.60;1.00;;;;;;4990482;28;20189;-75
2023/09/16 09:10:05;;;;;;;6.75;5.82;;;38.00;1.00;;;;;;4989058;28;20685;-75
2023/09/16 09:12:33;;;;;;;6.90;6.25;;;38.40;1.00;;;;;;4988347;28;20289;-74
2023/09/16 09:15:04;;;;;;;6.78;6.07;;;38.40;1.00;;;;;;4988308;28;20198;-76
2023/09/16 09:17:38;;;;;;;6.75;6.15;;;38.50;1.00;;;;;;4987443;28;20817;-78
2023/09/16 09:20:11;;;;;;;7.97;7.18;;;38.80;1.00;;;;;;4989786;28;20274;-74
2023/09/16 09:22:39;;;;;;;6.50;5.20;;;39.10;1.00;;;;;;4987691;28;20436;-76
2023/09/16 09:25:06;;;;;;;6.63;5.93;;;38.20;1.00;;;;;;4970887;28;20333;-74
2023/09/16 09:27:31;;;;;;;6.55;5.95;;;37.30;1.00;;;;;;4984661;28;20286;-74
2023/09/16 09:29:57;;;;;;;7.20;5.97;;;35.20;1.00;;;;;;4990104;28;20198;-75
2023/09/16 09:32:31;;;;;;;7.20;6.50;;;33.60;1.00;;;;;;4989130;28;20187;-74
2023/09/16 09:34:58;;;;;;;7.70;6.90;;;31.60;1.00;;;;;;4985837;28;20206;-73
2023/09/16 09:37:24;;;;;;;7.20;6.30;;;31.30;1.00;;;;;;4986455;28;20695;-76
2023/09/16 09:40:09;;;;;;;7.22;6.35;;;30.90;1.00;;;;;;4983927;28;20288;-73
2023/09/16 09:42:45;;;;;;;8.00;6.85;;;30.40;1.00;;;;;;4986591;28;20182;-77
2023/09/16 09:45:11;;;;;;;9.93;7.20;;;29.90;1.00;;;;;;4972002;28;20205;-75
2023/09/16 09:47:38;;;;;;;8.57;6.90;;;29.80;1.00;;;;;;4988819;28;20266;-75
2023/09/16 09:50:07;;;;;;;10.07;6.90;;;29.70;1.00;;;;;;4987773;28;20633;-78
2023/09/16 09:52:32;;;;;;;7.70;6.70;;;29.50;1.00;;;;;;4987297;28;20664;-74
2023/09/16 09:54:58;;;;;;;8.65;7.28;;;29.70;1.00;;;;;;4987758;28;20198;-76
2023/09/16 09:57:25;;;;;;;8.80;6.60;;;29.70;1.00;;;;;;4989214;28;20225;-82
2023/09/16 09:59:51;;;;;;;12.63;7.15;;;29.80;1.00;;;;;;4990071;28;20206;-77
2023/09/16 10:02:17;;;;;;;7.68;6.47;;;29.70;1.00;;;;;;4987829;28;20258;-73
2023/09/16 10:04:42;;;;;;;8.63;7.15;;;29.90;1.00;;;;;;4987068;28;20333;-76
2023/09/16 10:07:08;;;;;;;7.10;6.38;;;30.00;1.00;;;;;;4987910;28;20266;-72
2023/09/16 10:09:34;;;;;;;7.63;6.55;;;30.20;1.00;;;;;;4988326;28;20659;-72
2023/09/16 10:12:01;;;;;;;7.28;6.57;;;30.40;1.00;;;;;;4988732;28;20194;-73
2023/09/16 10:14:27;;;;;;;8.05;6.55;;;30.60;1.00;;;;;;4982371;28;20187;-73
2023/09/16 10:16:52;;;;;;;8.90;6.82;;;30.60;1.00;;;;;;4986830;28;20688;-74
2023/09/16 10:19:20;;;;;;;8.57;6.80;;;30.80;1.00;;;;;;4986290;28;20766;-70
2023/09/16 10:21:46;;;;;;;7.25;6.35;;;31.50;1.00;;;;;;4986208;28;20284;-73
2023/09/16 10:24:12;;;;;;;8.25;6.57;;;32.80;1.00;;;;;;4986212;28;20545;-71
2023/09/16 10:26:38;;;;;;;8.27;6.03;;;34.20;1.00;;;;;;4982014;28;20346;-70
2023/09/16 10:29:06;;;;;;;10.63;5.82;;;35.60;1.00;;;;;;4989106;28;20707;-72
2023/09/16 10:31:31;;;;;;;6.75;6.05;;;37.10;1.00;;;;;;4984712;28;20171;-74
2023/09/16 10:33:58;;;;;;;8.57;5.68;;;38.40;1.00;;;;;;4985140;28;20206;-71
2023/09/16 10:36:25;;;;;;;7.00;5.90;;;39.60;1.00;;;;;;4984701;28;20661;-71
2023/09/16 10:38:51;;;;;;;9.93;5.20;;;40.00;1.00;;;;;;4983919;28;20289;-71
2023/09/16 10:41:18;;;;;;;5.93;5.28;;;41.10;1.00;;;;;;4986542;28;20640;-71
2023/09/16 10:43:46;;;;;;;12.00;5.53;;;41.50;1.00;;;;;;4985880;28;20178;-73
2023/09/16 10:46:12;;;;;;;6.95;5.20;;;42.30;1.00;;;;;;4986431;28;20202;-72
2023/09/16 10:48:38;;;;;;;6.45;4.97;;;42.10;1.00;;;;;;4985953;28;20187;-71
2023/09/16 10:51:14;;;;;;;6.55;5.20;;;42.80;1.00;;;;;;4988155;28;20692;-72
2023/09/16 10:53:44;;;;;;;7.63;4.63;;;43.30;1.00;;;;;;4987894;28;20208;-71
2023/09/16 10:56:31;;;;;;;19.95;5.20;;;44.10;1.00;;;;;;4987507;28;20216;-74
2023/09/16 10:59:10;;;;;;;6.65;4.65;;;44.50;1.00;;;;;;4982843;28;20240;-75
2023/09/16 11:01:47;;;;;;;5.43;4.93;;;43.60;1.00;;;;;;4984718;28;20213;-72
2023/09/16 11:04:16;;;;;;;7.13;5.50;;;43.80;1.00;;;;;;4986272;28;20181;-72
2023/09/16 11:06:43;;;;;;;6.28;5.13;;;43.60;1.00;;;;;;4985958;28;20221;-72
2023/09/16 11:09:09;;;;;;;8.75;5.70;;;44.00;1.00;;;;;;4987821;28;20178;-71
2023/09/16 11:11:36;;;;;;;5.20;4.70;;;43.90;1.00;;;;;;4983327;28;20221;-75
2023/09/16 11:14:03;;;;;;;5.05;4.20;;;45.00;1.00;;;;;;4987216;28;20545;-73
2023/09/16 11:16:28;;;;;;;10.82;4.95;;;45.30;1.00;;;;;;4985408;28;20582;-72
2023/09/16 11:18:55;;;;;;;7.93;4.00;;;45.30;1.00;;;;;;4986285;28;20289;-74
2023/09/16 11:21:21;;;;;;;5.30;4.63;;;45.60;1.00;;;;;;4984876;28;20209;-78
2023/09/16 11:23:47;;;;;;;4.60;4.10;;;46.20;1.00;;;;;;4986405;28;20174;-73
2023/09/16 11:26:22;;;;;;;5.00;4.50;;;45.90;1.00;;;;;;4986187;28;20202;-73
2023/09/16 11:28:51;;;;;;;5.55;4.97;;;45.20;1.00;;;;;;4986012;28;20272;-74
2023/09/16 11:31:16;;;;;;;5.90;4.20;;;44.20;1.00;;;;;;4987528;28;20191;-73
2023/09/16 11:33:42;;;;;;;18.35;6.82;;;43.90;1.00;;;;;;4985237;28;20549;-73
2023/09/16 11:36:18;;;;;;;6.78;4.53;;;44.40;1.00;;;;;;4983901;28;20278;-75
2023/09/16 11:39:12;;;;;;;13.80;4.70;;;45.30;1.00;;;;;;4987447;28;20214;-73
2023/09/16 11:41:37;;;;;;;8.30;4.43;;;46.10;1.00;;;;;;4986813;28;20182;-77
2023/09/16 11:44:07;;;;;;;6.10;4.25;;;46.70;1.00;;;;;;4980156;28;20198;-74
2023/09/16 11:46:33;;;;;;;5.22;4.50;;;46.90;1.00;;;;;;4987138;28;20203;-74
2023/09/16 11:49:03;;;;;;;4.72;4.25;;;47.50;1.00;;;;;;4987810;28;20182;-74
2023/09/16 11:51:30;;;;;;;6.22;4.20;;;47.00;1.00;;;;;;4969734;28;20696;-75
2023/09/16 11:53:56;;;;;;;4.55;4.15;;;46.50;1.00;;;;;;4987762;28;20187;-75
2023/09/16 11:56:24;;;;;;;4.80;4.30;;;45.90;1.00;;;;;;4984648;28;20200;-74
2023/09/16 11:58:50;;;;;;;4.13;3.72;;;45.60;1.00;;;;;;4985057;28;20182;-73
2023/09/16 12:01:20;;;;;;;7.70;4.88;;;45.80;1.00;;;;;;4988121;28;20707;-75
2023/09/16 12:03:47;;;;;;;9.68;4.47;;;46.20;1.00;;;;;;4985283;28;20198;-75
2023/09/16 12:06:14;;;;;;;4.13;3.60;;;46.70;1.00;;;;;;4985618;28;20704;-75
2023/09/16 12:08:42;;;;;;;4.60;4.03;;;46.70;1.00;;;;;;4987215;28;20213;-76
2023/09/16 12:11:07;;;;;;;5.25;4.00;;;47.20;1.00;;;;;;4984011;28;20545;-75
2023/09/16 12:13:33;;;;;;;10.70;4.07;;;47.50;1.00;;;;;;4986027;28;20187;-74
2023/09/16 12:15:59;;;;;;;4.15;3.67;;;47.20;1.00;;;;;;4985353;28;20210;-72
2023/09/16 12:18:25;;;;;;;4.05;3.63;;;46.40;1.00;;;;;;4986648;28;20186;-74
2023/09/16 12:20:52;;;;;;;4.43;3.78;;;46.70;1.00;;;;;;4986588;28;20207;-76
2023/09/16 12:23:18;;;;;;;4.72;3.63;;;46.90;1.00;;;;;;4985997;28;20195;-76
2023/09/16 12:25:45;;;;;;;6.80;3.85;;;48.00;1.00;;;;;;4986637;28;20210;-74
2023/09/16 12:28:21;;;;;;;4.60;3.60;;;48.40;1.00;;;;;;4991273;28;20185;-73
2023/09/16 12:30:52;;;;;;;15.07;3.80;;;48.30;1.00;;;;;;4990273;28;20322;-74
2023/09/16 12:33:19;;;;;;;11.77;4.45;;;48.40;1.00;;;;;;4989820;28;20212;-74
2023/09/16 12:35:46;;;;;;;5.65;4.05;;;48.20;1.00;;;;;;4987653;28;20573;-75
2023/09/16 12:38:12;;;;;;;4.10;3.53;;;47.30;1.00;;;;;;4990225;28;20237;-74
2023/09/16 12:40:38;;;;;;;4.28;3.30;;;46.90;1.00;;;;;;4990354;28;20286;-73
2023/09/16 12:43:06;;;;;;;5.75;3.60;;;46.60;1.00;;;;;;4989511;28;20277;-75
2023/09/16 12:45:33;;;;;;;7.05;4.05;;;46.70;1.00;;;;;;4988284;28;20226;-73
2023/09/16 12:47:59;;;;;;;4.80;3.38;;;46.60;1.00;;;;;;4988573;28;20179;-73
2023/09/16 12:50:26;;;;;;;4.35;3.75;;;46.20;1.00;;;;;;4988735;28;20205;-73
2023/09/16 12:52:53;;;;;;;4.65;3.70;;;46.20;1.00;;;;;;4987768;28;20703;-72